Time;durP1;ratioP1;P1;durP2;ratioP2;P2;SDS_P1;SDS_P2;PMS_P1;PMS_P2;Temp;Humidity;BMP_temperature;BMP_pressure;BME280_temperature;BME280_humidity;BME280_pressure;Samples;Min_cycle;Max_cycle;Signal;HPM_P1;HPM_P2
2021/11/24 00:00:06;;;;;;;53.10;33.28;;;;;;;7.40;53.85;96098.53;4991326;28;20050;-63
2021/11/24 00:02:31;;;;;;;65.72;37.78;;;;;;;7.20;53.61;96101.09;4992696;28;20461;-63
2021/11/24 00:04:57;;;;;;;62.67;36.35;;;;;;;7.00;54.45;96101.81;4993322;28;20105;-64
2021/11/24 00:07:22;;;;;;;61.70;35.47;;;;;;;6.83;55.51;96093.25;4996417;28;20384;-63
2021/11/24 00:09:47;;;;;;;68.82;37.60;;;;;;;6.76;55.71;96091.66;4991327;28;20698;-63
2021/11/24 00:12:13;;;;;;;64.22;36.47;;;;;;;6.55;56.27;96081.19;4992858;28;20121;-63
2021/11/24 00:14:38;;;;;;;70.57;39.38;;;;;;;6.67;55.58;96097.66;4993160;28;20442;-63
2021/11/24 00:17:03;;;;;;;64.63;34.40;;;;;;;6.64;55.88;96092.88;4993105;28;20102;-64
2021/11/24 00:19:29;;;;;;;83.40;39.88;;;;;;;6.45;56.15;96082.72;4992747;28;20559;-63
2021/11/24 00:21:54;;;;;;;67.20;36.25;;;;;;;6.67;55.65;96095.81;4995298;28;20056;-63
2021/11/24 00:24:21;;;;;;;79.13;40.92;;;;;;;6.69;55.49;96087.63;4993111;28;20068;-64
2021/11/24 00:26:47;;;;;;;69.80;37.45;;;;;;;6.65;55.16;96094.47;4992647;28;20396;-64
2021/11/24 00:29:12;;;;;;;68.50;36.70;;;;;;;6.10;55.08;95992.66;4992299;28;20030;-63
2021/11/24 00:31:37;;;;;;;74.53;38.58;;;;;;;6.67;55.01;96089.72;4991190;28;20038;-63
2021/11/24 00:34:03;;;;;;;81.70;40.88;;;;;;;6.53;55.32;96068.22;4992702;28;20026;-63
2021/11/24 00:36:28;;;;;;;75.80;39.08;;;;;;;6.64;55.17;96080.44;4991287;28;20038;-65
2021/11/24 00:38:54;;;;;;;80.53;39.45;;;;;;;6.39;55.52;96064.44;4995758;28;20027;-63
2021/11/24 00:41:19;;;;;;;94.93;40.47;;;;;;;6.39;55.48;96077.66;4991803;28;20449;-63
2021/11/24 00:43:44;;;;;;;82.20;39.90;;;;;;;6.53;54.56;96067.44;4992422;28;20037;-63
2021/11/24 00:46:10;;;;;;;84.20;40.25;;;;;;;6.48;55.16;96066.34;4992372;28;20023;-64
2021/11/24 00:48:35;;;;;;;92.10;40.10;;;;;;;6.53;54.52;96070.88;4992244;28;20034;-63
2021/11/24 00:51:01;;;;;;;90.53;40.80;;;;;;;6.34;54.84;96040.63;4990876;28;20092;-63
2021/11/24 00:53:26;;;;;;;108.07;44.03;;;;;;;6.46;55.03;96062.38;4995421;28;20026;-63
2021/11/24 00:55:52;;;;;;;115.50;46.92;;;;;;;6.47;55.11;96067.41;4990705;28;20440;-64
2021/11/24 00:58:18;;;;;;;103.30;44.03;;;;;;;6.42;54.56;96059.44;4991798;28;20022;-63
2021/11/24 01:00:44;;;;;;;98.82;42.97;;;;;;;6.37;55.15;96061.25;4991588;28;20034;-63
2021/11/24 01:03:09;;;;;;;88.05;42.47;;;;;;;6.36;55.50;96070.25;4991844;28;20054;-64
2021/11/24 01:05:35;;;;;;;91.05;41.55;;;;;;;6.41;55.41;96063.16;4991543;28;20072;-64
2021/11/24 01:08:00;;;;;;;88.28;40.40;;;;;;;6.45;55.20;96051.03;4995757;28;20022;-64
2021/11/24 01:10:26;;;;;;;82.93;41.47;;;;;;;6.59;56.03;96058.47;4991376;28;20034;-64
2021/11/24 01:12:52;;;;;;;68.70;37.78;;;;;;;6.83;55.89;96072.09;4991526;28;20387;-64
2021/11/24 01:15:18;;;;;;;68.38;38.85;;;;;;;6.87;55.59;96057.31;4991633;28;20019;-64
2021/11/24 01:17:43;;;;;;;68.97;38.92;;;;;;;7.00;55.06;96070.06;4991825;28;20472;-64
2021/11/24 01:20:10;;;;;;;70.88;38.70;;;;;;;7.00;54.76;96062.91;4991023;28;20053;-64
2021/11/24 01:22:35;;;;;;;72.72;38.70;;;;;;;6.68;55.35;96068.31;4993080;28;20032;-63
2021/11/24 01:25:01;;;;;;;68.82;38.65;;;;;;;6.47;55.17;96008.47;4991268;28;20038;-64
2021/11/24 01:27:27;;;;;;;75.32;39.30;;;;;;;7.02;54.79;96060.81;4991282;28;20030;-64
2021/11/24 01:29:52;;;;;;;68.75;38.05;;;;;;;7.27;54.93;96052.19;4990892;28;20054;-65
2021/11/24 01:32:17;;;;;;;63.75;35.78;;;;;;;7.31;54.08;96052.44;4989907;28;20448;-63
2021/11/24 01:34:43;;;;;;;62.75;35.28;;;;;;;7.53;53.54;96055.69;4991350;28;20022;-64
2021/11/24 01:37:08;;;;;;;56.55;34.10;;;;;;;7.50;53.33;96045.63;4994447;28;20062;-63
2021/11/24 01:39:33;;;;;;;53.70;33.17;;;;;;;7.73;53.75;96049.66;4990505;28;20480;-63
2021/11/24 01:41:59;;;;;;;54.15;32.47;;;;;;;8.04;52.75;96050.44;4991019;28;20030;-63
2021/11/24 01:44:27;;;;;;;59.00;34.05;;;;;;;7.60;52.53;96034.25;4991097;28;20476;-65
2021/11/24 01:46:59;;;;;;;53.10;32.50;;;;;;;7.99;52.34;96047.00;4991097;28;20022;-63
2021/11/24 01:49:26;;;;;;;55.47;32.63;;;;;;;7.63;53.06;96043.53;4990534;28;20022;-66
2021/11/24 01:51:52;;;;;;;57.10;33.08;;;;;;;7.90;52.57;96044.09;4993109;28;20054;-63
2021/11/24 01:54:18;;;;;;;54.65;31.60;;;;;;;7.87;52.44;96014.69;4994032;28;20049;-63
2021/11/24 01:56:44;;;;;;;57.92;33.30;;;;;;;7.90;51.90;96030.06;4990755;28;20077;-63
2021/11/24 01:59:11;;;;;;;58.08;32.13;;;;;;;8.11;51.85;96031.63;4990444;28;20026;-62
2021/11/24 02:01:38;;;;;;;57.40;32.30;;;;;;;8.20;51.91;96024.75;4990355;28;20034;-64
2021/11/24 02:04:04;;;;;;;46.22;29.30;;;;;;;8.20;51.31;96021.31;4990835;28;20468;-64
2021/11/24 02:06:30;;;;;;;43.75;28.38;;;;;;;8.12;51.54;96009.38;4990227;28;20042;-64
2021/11/24 02:08:55;;;;;;;46.10;28.60;;;;;;;8.15;51.75;96019.44;4997514;28;20030;-64
2021/11/24 02:11:20;;;;;;;48.85;29.20;;;;;;;8.23;51.43;96023.41;4990181;28;20022;-64
2021/11/24 02:13:46;;;;;;;47.35;28.45;;;;;;;8.21;51.39;96018.38;4990512;28;20030;-63
2021/11/24 02:16:11;;;;;;;46.85;26.77;;;;;;;8.16;51.46;96023.69;4990717;28;20385;-63
2021/11/24 02:18:37;;;;;;;43.47;26.58;;;;;;;8.21;51.37;96014.94;4990639;28;20527;-63
2021/11/24 02:21:02;;;;;;;45.05;28.27;;;;;;;8.17;51.05;95996.13;4989642;28;20080;-64
2021/11/24 02:23:27;;;;;;;46.20;29.00;;;;;;;8.26;51.28;96013.06;4993858;28;20038;-64
2021/11/24 02:25:53;;;;;;;45.25;27.33;;;;;;;8.23;51.38;96012.81;4994228;28;20026;-63
2021/11/24 02:28:18;;;;;;;45.85;28.83;;;;;;;8.19;51.19;95996.66;4990283;28;20026;-63
2021/11/24 02:30:44;;;;;;;47.90;28.20;;;;;;;8.34;51.17;96001.94;4989905;28;20030;-63
2021/11/24 02:33:09;;;;;;;53.33;29.95;;;;;;;8.14;51.26;96006.44;4990126;28;20022;-63
2021/11/24 02:35:35;;;;;;;46.72;27.52;;;;;;;8.18;50.98;95988.94;4990461;28;20022;-64
2021/11/24 02:38:03;;;;;;;42.88;27.90;;;;;;;8.16;50.95;95969.88;4993243;28;20021;-63
2021/11/24 02:40:34;;;;;;;45.78;26.23;;;;;;;8.28;50.61;95978.34;4993296;28;20042;-63
2021/11/24 02:43:01;;;;;;;45.70;27.57;;;;;;;8.30;50.52;95984.97;4989971;28;20073;-63
2021/11/24 02:45:27;;;;;;;48.35;27.55;;;;;;;8.26;50.96;95973.31;4990282;28;20080;-63
2021/11/24 02:47:53;;;;;;;47.38;29.00;;;;;;;8.14;51.04;95970.16;4990201;28;20030;-63
2021/11/24 02:50:18;;;;;;;50.22;28.42;;;;;;;8.03;50.74;95955.31;4989748;28;20606;-62
2021/11/24 02:52:43;;;;;;;46.85;28.08;;;;;;;8.00;50.89;95961.16;4992982;28;20049;-64
2021/11/24 02:55:09;;;;;;;50.95;29.85;;;;;;;8.12;51.41;95959.03;4993654;28;20042;-63
2021/11/24 02:57:37;;;;;;;45.83;27.75;;;;;;;8.10;51.27;95953.22;4988990;28;20022;-63
2021/11/24 03:00:11;;;;;;;51.70;28.63;;;;;;;8.12;51.59;95953.72;4990940;28;20499;-63
2021/11/24 03:02:37;;;;;;;50.22;29.55;;;;;;;8.19;51.31;95951.59;4993999;28;20113;-63
2021/11/24 03:05:03;;;;;;;51.75;28.73;;;;;;;8.07;51.01;95951.06;4994190;28;20128;-63
2021/11/24 03:07:28;;;;;;;58.00;29.88;;;;;;;7.97;51.24;95932.53;4997148;28;20038;-64
2021/11/24 03:09:54;;;;;;;54.63;29.70;;;;;;;8.15;51.35;95947.91;4995728;28;20084;-63
2021/11/24 03:12:20;;;;;;;45.30;28.52;;;;;;;8.07;51.35;95932.53;4992295;28;20034;-63
2021/11/24 03:14:46;;;;;;;48.33;29.77;;;;;;;8.16;51.12;95933.56;4993868;28;20037;-63
2021/11/24 03:17:11;;;;;;;49.65;28.77;;;;;;;8.17;51.16;95924.56;4994119;28;20443;-63
2021/11/24 03:19:36;;;;;;;46.88;28.70;;;;;;;8.14;51.10;95924.28;4993091;28;20051;-64
2021/11/24 03:22:02;;;;;;;45.72;27.75;;;;;;;8.06;51.12;95915.84;4990565;28;20026;-63
2021/11/24 03:24:27;;;;;;;45.60;26.67;;;;;;;8.15;51.07;95915.31;4996998;28;20030;-64
2021/11/24 03:26:53;;;;;;;39.88;26.17;;;;;;;8.10;50.47;95894.91;4992428;28;20396;-63
2021/11/24 03:29:18;;;;;;;43.75;25.88;;;;;;;8.17;50.57;95907.88;4993302;28;20029;-63
2021/11/24 03:31:44;;;;;;;42.13;25.35;;;;;;;8.26;50.78;95916.84;4993599;28;20118;-64
2021/11/24 03:34:10;;;;;;;41.20;25.63;;;;;;;8.32;51.06;95916.56;4993775;28;20027;-63
2021/11/24 03:36:36;;;;;;;43.35;26.45;;;;;;;8.30;50.83;95908.09;4993146;28;20130;-63
2021/11/24 03:39:02;;;;;;;43.45;26.67;;;;;;;8.38;50.52;95895.38;4996708;28;20026;-63
2021/11/24 03:41:28;;;;;;;45.78;25.60;;;;;;;8.25;50.55;95908.13;4993245;28;20066;-63
2021/11/24 03:43:53;;;;;;;41.00;23.90;;;;;;;8.15;50.73;95902.06;4993724;28;20058;-63
2021/11/24 03:46:19;;;;;;;39.05;23.98;;;;;;;8.18;51.14;95904.94;4992174;28;20171;-63
2021/11/24 03:48:44;;;;;;;39.42;23.83;;;;;;;8.34;50.58;95906.50;4993572;28;20130;-64
2021/11/24 03:51:10;;;;;;;42.25;25.65;;;;;;;8.32;50.71;95887.41;4991231;28;20052;-64
2021/11/24 03:53:40;;;;;;;37.53;23.83;;;;;;;8.36;50.46;95886.88;4996641;28;20125;-63
2021/11/24 03:56:05;;;;;;;40.83;24.38;;;;;;;8.47;50.39;95904.34;4991926;28;20121;-64
2021/11/24 03:58:30;;;;;;;41.97;25.60;;;;;;;8.52;50.24;95897.19;4993165;28;20452;-64
2021/11/24 04:00:56;;;;;;;41.72;25.38;;;;;;;8.55;50.10;95899.28;4991445;28;20034;-63
2021/11/24 04:03:21;;;;;;;43.63;26.75;;;;;;;8.64;50.13;95885.44;4991399;28;20026;-63
2021/11/24 04:05:47;;;;;;;44.13;25.90;;;;;;;8.63;50.25;95889.97;4992883;28;20026;-63
2021/11/24 04:08:12;;;;;;;42.65;26.30;;;;;;;8.64;50.01;95893.41;4996316;28;20464;-63
2021/11/24 04:10:37;;;;;;;43.78;26.95;;;;;;;8.62;49.97;95906.94;4990136;28;20391;-62
2021/11/24 04:13:03;;;;;;;37.75;24.80;;;;;;;8.58;50.17;95900.59;4990634;28;20057;-64
2021/11/24 04:15:28;;;;;;;37.97;24.23;;;;;;;8.66;50.10;95892.09;4993001;28;20450;-64
2021/11/24 04:17:54;;;;;;;39.20;23.98;;;;;;;8.60;49.83;95877.25;4992875;28;20041;-64
2021/11/24 04:20:20;;;;;;;40.88;25.00;;;;;;;8.78;50.01;95900.50;4992757;28;20533;-63
2021/11/24 04:22:45;;;;;;;41.33;25.42;;;;;;;8.79;49.61;95896.78;4992856;28;20034;-64
2021/11/24 04:25:13;;;;;;;33.00;21.90;;;;;;;8.65;49.53;95879.06;5002434;28;20041;-63
2021/11/24 04:27:38;;;;;;;32.92;21.80;;;;;;;8.79;49.46;95886.16;4992787;28;20018;-64
2021/11/24 04:30:05;;;;;;;32.65;22.00;;;;;;;8.85;49.41;95889.56;4992164;28;20037;-63
2021/11/24 04:32:30;;;;;;;31.15;20.80;;;;;;;8.92;49.69;95890.09;4992019;28;20034;-63
2021/11/24 04:34:56;;;;;;;35.97;22.55;;;;;;;8.93;49.07;95890.88;4992352;28;20045;-62
2021/11/24 04:37:21;;;;;;;29.85;20.55;;;;;;;8.80;49.50;95873.69;4991899;28;20075;-64
2021/11/24 04:39:46;;;;;;;29.73;20.40;;;;;;;8.79;49.41;95880.84;4995327;28;20392;-64
2021/11/24 04:42:12;;;;;;;28.45;19.52;;;;;;;8.89;49.09;95890.63;4992073;28;20486;-63
2021/11/24 04:44:37;;;;;;;30.17;20.08;;;;;;;8.83;49.04;95873.94;4991072;28;20030;-63
2021/11/24 04:47:03;;;;;;;30.25;20.40;;;;;;;8.83;48.95;95887.19;4992262;28;20528;-63
2021/11/24 04:49:29;;;;;;;26.65;19.38;;;;;;;8.82;48.82;95875.00;4990157;28;20523;-63
2021/11/24 04:51:54;;;;;;;27.27;19.70;;;;;;;8.78;48.96;95878.47;4991523;28;20062;-63
2021/11/24 04:54:19;;;;;;;26.77;19.60;;;;;;;8.92;48.46;95868.06;4995602;28;20384;-64
2021/11/24 04:56:45;;;;;;;31.17;20.83;;;;;;;9.02;48.82;95879.41;4992009;28;20032;-63
2021/11/24 04:59:10;;;;;;;26.45;19.17;;;;;;;8.95;48.50;95872.81;4991327;28;20053;-62
2021/11/24 05:01:36;;;;;;;29.67;21.30;;;;;;;9.03;48.31;95880.19;4990364;28;20030;-63
2021/11/24 05:04:01;;;;;;;27.60;20.38;;;;;;;9.01;48.42;95874.38;4990614;28;20030;-63
2021/11/24 05:06:27;;;;;;;26.98;20.20;;;;;;;9.09;48.69;95889.69;4990255;28;20026;-63
2021/11/24 05:08:52;;;;;;;40.13;23.90;;;;;;;8.54;48.34;95873.03;5001158;28;20024;-63
2021/11/24 05:11:19;;;;;;;36.85;23.85;;;;;;;8.96;48.71;95893.78;4992127;28;20888;-64
2021/11/24 05:13:50;;;;;;;32.28;22.15;;;;;;;8.92;48.95;95890.09;4991535;28;20036;-64
2021/11/24 05:16:16;;;;;;;37.63;23.80;;;;;;;9.01;49.28;95885.00;4991819;28;20022;-63
2021/11/24 05:18:47;;;;;;;31.95;21.85;;;;;;;9.03;48.76;95888.16;4991593;28;20026;-64
2021/11/24 05:21:16;;;;;;;32.78;21.73;;;;;;;9.04;48.81;95881.78;4991067;28;20117;-65
2021/11/24 05:23:43;;;;;;;35.08;24.02;;;;;;;9.06;48.83;95877.78;4994083;28;20050;-63
2021/11/24 05:26:10;;;;;;;40.30;24.67;;;;;;;8.99;48.87;95873.84;4991460;28;20049;-64
2021/11/24 05:28:35;;;;;;;32.47;22.30;;;;;;;8.98;48.67;95878.38;4990027;28;20027;-65
2021/11/24 05:31:01;;;;;;;38.53;23.42;;;;;;;8.78;49.00;95878.47;4990827;28;20030;-63
2021/11/24 05:33:27;;;;;;;39.58;22.83;;;;;;;8.44;49.22;95871.22;4991052;28;20503;-62
2021/11/24 05:35:53;;;;;;;37.38;23.35;;;;;;;8.56;49.25;95886.81;4991199;28;20387;-64
2021/11/24 05:38:18;;;;;;;35.42;21.80;;;;;;;8.42;49.53;95856.66;4994532;28;20080;-65
2021/11/24 05:40:44;;;;;;;32.40;21.65;;;;;;;8.23;50.44;95862.53;4992971;28;20667;-64
2021/11/24 05:43:10;;;;;;;39.53;23.15;;;;;;;8.32;50.18;95866.19;4990695;28;20033;-64
2021/11/24 05:45:40;;;;;;;41.30;24.48;;;;;;;8.10;50.30;95870.28;4990841;28;20022;-63
2021/11/24 05:48:13;;;;;;;43.28;25.48;;;;;;;8.07;50.72;95876.88;4991253;28;20034;-63
2021/11/24 05:50:39;;;;;;;40.47;24.90;;;;;;;8.12;50.77;95876.88;4990365;28;20476;-63
2021/11/24 05:53:05;;;;;;;48.92;26.65;;;;;;;8.18;50.89;95867.84;4993587;28;20022;-64
2021/11/24 05:55:31;;;;;;;39.63;23.80;;;;;;;8.28;50.37;95862.50;4994592;28;20026;-63
2021/11/24 05:57:57;;;;;;;40.22;24.70;;;;;;;8.36;50.49;95863.03;4990977;28;20033;-65
2021/11/24 06:00:22;;;;;;;42.83;23.88;;;;;;;8.43;50.02;95861.69;4990627;28;20481;-63
2021/11/24 06:02:49;;;;;;;42.72;25.30;;;;;;;8.36;50.06;95845.28;4990788;28;20030;-62
2021/11/24 06:05:14;;;;;;;46.60;25.40;;;;;;;8.48;50.09;95850.25;4990983;28;20094;-62
2021/11/24 06:07:40;;;;;;;67.38;31.75;;;;;;;8.31;50.27;95854.03;4991434;28;20483;-63
2021/11/24 06:10:09;;;;;;;54.88;28.13;;;;;;;8.49;50.44;95865.88;4996010;28;20105;-63
2021/11/24 06:12:35;;;;;;;52.55;27.38;;;;;;;8.49;50.44;95862.44;4989905;28;20030;-64
2021/11/24 06:15:01;;;;;;;50.53;26.73;;;;;;;8.32;50.45;95858.25;4990483;28;20027;-63
2021/11/24 06:17:26;;;;;;;49.63;26.20;;;;;;;8.64;50.17;95875.63;4989100;28;20614;-63
2021/11/24 06:19:52;;;;;;;39.13;24.00;;;;;;;8.73;49.91;95874.00;4990174;28;20026;-63
2021/11/24 06:22:17;;;;;;;43.40;24.63;;;;;;;8.84;49.33;95872.88;4989902;28;20085;-63
2021/11/24 06:24:43;;;;;;;40.70;24.35;;;;;;;8.82;49.59;95867.06;5002093;28;20065;-63
2021/11/24 06:27:09;;;;;;;39.70;22.25;;;;;;;8.66;49.01;95846.22;4990106;28;20469;-63
2021/11/24 06:29:34;;;;;;;43.58;24.67;;;;;;;8.82;49.24;95851.13;4988350;28;20036;-65
2021/11/24 06:31:59;;;;;;;55.80;26.55;;;;;;;8.56;49.27;95855.00;4990142;28;20022;-65
2021/11/24 06:34:25;;;;;;;45.40;25.85;;;;;;;8.49;49.24;95859.78;4988422;28;20040;-64
2021/11/24 06:36:53;;;;;;;41.30;24.52;;;;;;;8.69;49.93;95870.31;4989665;28;20023;-64
2021/11/24 06:39:19;;;;;;;47.85;25.15;;;;;;;8.33;49.72;95859.03;4991539;28;20038;-64
2021/11/24 06:41:45;;;;;;;44.88;24.20;;;;;;;8.10;49.85;95841.13;4993383;28;20038;-66
2021/11/24 06:44:10;;;;;;;54.00;25.00;;;;;;;8.12;50.31;95852.25;4988799;28;20061;-64
2021/11/24 06:46:36;;;;;;;47.08;25.15;;;;;;;7.76;50.82;95825.84;4990612;28;20033;-65
2021/11/24 06:49:02;;;;;;;43.47;23.30;;;;;;;8.21;50.25;95869.97;4989786;28;20027;-65
2021/11/24 06:51:27;;;;;;;41.42;23.17;;;;;;;8.32;50.23;95876.00;4989808;28;20031;-65
2021/11/24 06:53:52;;;;;;;34.38;21.60;;;;;;;8.37;50.05;95861.97;4992430;28;20025;-65
2021/11/24 06:56:17;;;;;;;29.48;19.48;;;;;;;8.44;49.32;95860.59;4989167;28;20042;-64
2021/11/24 06:58:43;;;;;;;30.98;20.77;;;;;;;8.40;49.20;95870.19;4988564;28;20029;-65
2021/11/24 07:01:08;;;;;;;32.38;19.77;;;;;;;8.55;49.32;95879.94;4989559;28;20381;-64
2021/11/24 07:03:34;;;;;;;27.25;19.00;;;;;;;8.69;49.16;95877.47;4989845;28;20034;-63
2021/11/24 07:05:59;;;;;;;30.08;19.92;;;;;;;8.79;49.08;95880.84;4989919;28;20038;-62
2021/11/24 07:08:25;;;;;;;25.60;18.42;;;;;;;8.84;48.29;95874.72;4988646;28;20030;-63
2021/11/24 07:10:50;;;;;;;28.13;17.90;;;;;;;8.88;48.72;95873.13;4991857;28;20798;-70
2021/11/24 07:13:15;;;;;;;30.15;17.98;;;;;;;8.99;48.16;95889.78;4989530;28;20090;-67
2021/11/24 07:15:41;;;;;;;31.13;18.20;;;;;;;8.47;48.66;95856.63;4990181;28;20080;-66
2021/11/24 07:18:07;;;;;;;24.42;17.98;;;;;;;8.71;48.71;95880.66;4989978;28;20485;-66
2021/11/24 07:20:32;;;;;;;26.38;17.73;;;;;;;8.64;48.53;95862.38;4989536;28;20065;-66
2021/11/24 07:22:58;;;;;;;25.10;17.67;;;;;;;8.79;48.28;95890.69;4988161;28;20526;-68
2021/11/24 07:25:24;;;;;;;27.42;18.48;;;;;;;8.68;48.25;95881.19;4986730;28;20049;-66
2021/11/24 07:27:49;;;;;;;23.58;17.05;;;;;;;8.77;48.28;95888.31;4987756;28;20065;-66
2021/11/24 07:30:17;;;;;;;33.28;18.70;;;;;;;7.88;49.77;95881.16;4985410;28;20113;-67
2021/11/24 07:32:44;;;;;;;28.98;19.50;;;;;;;8.39;49.51;95892.44;4985177;28;20018;-65
2021/11/24 07:35:09;;;;;;;27.48;18.92;;;;;;;8.55;49.26;95867.47;4989391;28;20022;-69
2021/11/24 07:37:35;;;;;;;28.67;19.17;;;;;;;8.58;48.68;95880.16;4987948;28;20046;-66
2021/11/24 07:40:00;;;;;;;31.98;19.42;;;;;;;8.15;49.01;95889.59;4992782;28;20022;-66
2021/11/24 07:42:25;;;;;;;23.00;16.88;;;;;;;8.16;49.41;95885.88;4988092;28;20032;-71
2021/11/24 07:44:51;;;;;;;24.48;18.60;;;;;;;8.38;49.77;95879.47;4989875;28;20078;-66
2021/11/24 07:47:16;;;;;;;25.52;17.45;;;;;;;8.62;48.77;95883.06;4992997;28;20541;-64
2021/11/24 07:49:42;;;;;;;28.33;18.70;;;;;;;8.68;48.51;95865.28;4992953;28;20030;-66
2021/11/24 07:52:07;;;;;;;25.40;17.73;;;;;;;8.90;48.65;95878.16;4993111;28;20022;-66
2021/11/24 07:54:32;;;;;;;21.95;15.82;;;;;;;8.72;48.22;95871.63;4993298;28;20129;-66
2021/11/24 07:56:58;;;;;;;21.20;16.45;;;;;;;9.01;48.11;95872.53;4996462;28;20365;-68
2021/11/24 07:59:24;;;;;;;18.77;15.55;;;;;;;9.14;47.39;95870.31;4991294;28;20030;-66
2021/11/24 08:01:49;;;;;;;19.95;16.38;;;;;;;9.19;47.65;95855.13;4992626;28;20038;-66
2021/11/24 08:04:15;;;;;;;20.73;15.90;;;;;;;9.34;47.18;95852.34;4993274;28;20026;-68
2021/11/24 08:06:41;;;;;;;23.38;16.33;;;;;;;9.42;47.03;95861.59;4991974;28;20084;-69
2021/11/24 08:09:06;;;;;;;23.70;15.90;;;;;;;9.10;47.34;95848.81;4994598;28;20460;-67
2021/11/24 08:11:32;;;;;;;24.50;15.18;;;;;;;9.34;46.84;95847.03;4992399;28;20169;-68
2021/11/24 08:13:57;;;;;;;28.63;15.65;;;;;;;9.38;47.26;95845.41;4992952;28;20052;-70
2021/11/24 08:16:22;;;;;;;25.95;16.33;;;;;;;9.47;46.79;95842.97;4993749;28;20478;-67
2021/11/24 08:18:48;;;;;;;23.27;16.80;;;;;;;9.66;46.68;95860.84;4992549;28;20026;-69
2021/11/24 08:21:13;;;;;;;25.42;16.25;;;;;;;9.76;46.79;95861.53;4992511;28;20361;-66
2021/11/24 08:23:39;;;;;;;22.85;15.88;;;;;;;9.92;45.69;95861.38;4993164;28;20435;-64
2021/11/24 08:26:04;;;;;;;22.73;15.70;;;;;;;9.84;46.49;95847.66;4995178;28;20026;-66
2021/11/24 08:28:29;;;;;;;23.17;14.55;;;;;;;9.56;45.85;95837.81;4992465;28;20125;-67
2021/11/24 08:30:55;;;;;;;19.15;15.95;;;;;;;9.43;45.88;95828.66;4992341;28;20034;-68
2021/11/24 08:33:20;;;;;;;18.13;14.45;;;;;;;9.65;46.00;95836.16;4991364;28;20077;-67
2021/11/24 08:35:48;;;;;;;18.17;15.35;;;;;;;9.36;45.80;95826.31;4992563;28;20049;-69
2021/11/24 08:38:13;;;;;;;17.85;14.85;;;;;;;9.53;46.11;95823.25;4991892;28;20030;-64
2021/11/24 08:40:39;;;;;;;21.40;15.45;;;;;;;9.69;45.58;95817.78;4995511;28;20447;-63
2021/11/24 08:43:04;;;;;;;19.27;15.40;;;;;;;9.42;46.06;95821.78;4990647;28;20061;-64
2021/11/24 08:45:30;;;;;;;19.70;14.98;;;;;;;9.58;46.46;95812.59;4992280;28;20018;-64
2021/11/24 08:47:56;;;;;;;17.88;15.02;;;;;;;9.90;45.46;95827.13;4992110;28;20031;-73
2021/11/24 08:50:22;;;;;;;16.65;13.25;;;;;;;9.92;45.03;95832.16;4991142;28;20034;-67
2021/11/24 08:52:48;;;;;;;14.93;13.27;;;;;;;9.86;45.24;95818.13;4991054;28;20030;-67
2021/11/24 08:55:14;;;;;;;19.52;14.55;;;;;;;9.84;44.86;95820.28;4995616;28;20023;-68
2021/11/24 08:57:40;;;;;;;19.38;15.40;;;;;;;10.02;44.59;95808.13;4991251;28;20022;-67
2021/11/24 09:00:09;;;;;;;23.15;14.48;;;;;;;10.21;44.95;95813.50;4991460;28;20476;-67
2021/11/24 09:02:35;;;;;;;18.30;14.35;;;;;;;10.27;44.64;95807.84;4991674;28;20113;-66
2021/11/24 09:05:02;;;;;;;17.17;14.07;;;;;;;10.24;44.22;95789.03;4990569;28;20121;-66
2021/11/24 09:07:27;;;;;;;14.25;12.65;;;;;;;10.23;44.54;95798.03;4990558;28;20029;-65
2021/11/24 09:09:52;;;;;;;16.92;13.13;;;;;;;10.38;44.13;95798.66;4994561;28;20034;-65
2021/11/24 09:12:18;;;;;;;15.48;12.88;;;;;;;10.39;43.75;95805.59;4991308;28;20420;-65
2021/11/24 09:14:43;;;;;;;14.70;13.20;;;;;;;10.40;43.39;95793.88;4991751;28;20088;-65
2021/11/24 09:17:09;;;;;;;13.57;12.20;;;;;;;10.54;43.54;95796.59;4990486;28;20038;-65
2021/11/24 09:19:34;;;;;;;13.80;12.35;;;;;;;10.57;43.33;95806.66;4991391;28;20030;-66
2021/11/24 09:22:00;;;;;;;13.80;12.23;;;;;;;10.56;43.54;95805.09;4991122;28;20588;-65
2021/11/24 09:24:26;;;;;;;14.35;12.18;;;;;;;10.80;43.44;95804.22;4995058;28;20088;-65
2021/11/24 09:27:03;;;;;;;14.73;12.93;;;;;;;10.91;42.79;95800.34;4991447;28;20033;-64
2021/11/24 09:29:28;;;;;;;20.98;13.52;;;;;;;10.86;42.82;95792.44;4971775;28;20465;-64
2021/11/24 09:31:55;;;;;;;15.00;13.23;;;;;;;10.84;43.14;95798.03;4971855;28;20038;-64
2021/11/24 09:34:22;;;;;;;16.48;12.45;;;;;;;10.87;42.59;95778.03;4987120;28;20109;-65
2021/11/24 09:36:48;;;;;;;16.00;13.02;;;;;;;10.86;42.52;95781.78;4986957;28;20026;-64
2021/11/24 09:39:14;;;;;;;17.25;13.05;;;;;;;10.86;42.27;95785.25;4992589;28;20025;-64
2021/11/24 09:41:44;;;;;;;15.25;13.65;;;;;;;10.90;42.50;95788.91;4990858;28;20558;-64
2021/11/24 09:44:10;;;;;;;20.85;13.73;;;;;;;11.01;42.58;95783.44;4991086;28;20034;-64
2021/11/24 09:46:36;;;;;;;16.20;14.38;;;;;;;10.85;42.84;95765.03;4991074;28;20018;-64
2021/11/24 09:49:04;;;;;;;21.23;13.63;;;;;;;11.10;42.47;95776.34;4990542;28;20019;-63
2021/11/24 09:51:34;;;;;;;16.98;13.68;;;;;;;10.89;42.35;95770.53;4989389;28;20058;-63
2021/11/24 09:54:04;;;;;;;15.13;13.45;;;;;;;10.73;43.14;95771.88;4994428;28;20468;-64
2021/11/24 09:56:29;;;;;;;13.77;12.30;;;;;;;10.60;42.78;95760.88;4998168;28;20030;-63
2021/11/24 09:58:54;;;;;;;14.60;11.73;;;;;;;10.44;42.58;95756.88;4990597;28;20117;-63
2021/11/24 10:01:20;;;;;;;14.32;12.30;;;;;;;9.97;43.87;95757.69;4990795;28;20034;-64
2021/11/24 10:03:46;;;;;;;13.70;12.23;;;;;;;10.14;43.59;95758.81;4991124;28;20027;-63
2021/11/24 10:06:12;;;;;;;13.13;11.77;;;;;;;9.54;44.45;95755.78;4989922;28;20018;-64
2021/11/24 10:08:37;;;;;;;13.75;12.35;;;;;;;9.28;45.43;95744.63;4991598;28;20026;-63
2021/11/24 10:11:03;;;;;;;14.20;12.70;;;;;;;9.08;45.29;95745.59;4996017;28;20387;-65
2021/11/24 10:13:28;;;;;;;12.95;11.65;;;;;;;9.14;46.02;95741.03;4997754;28;20030;-64
2021/11/24 10:15:57;;;;;;;12.35;11.15;;;;;;;9.45;45.38;95744.19;4990928;28;20072;-64
2021/11/24 10:18:27;;;;;;;12.93;11.57;;;;;;;9.71;44.37;95739.38;4990806;28;20158;-66
2021/11/24 10:21:09;;;;;;;12.55;11.32;;;;;;;9.88;44.50;95737.09;4990263;28;20033;-64
2021/11/24 10:23:39;;;;;;;13.48;12.07;;;;;;;9.83;44.36;95731.03;4990178;28;20034;-64
2021/11/24 10:26:16;;;;;;;14.77;11.68;;;;;;;9.76;44.64;95731.34;4993868;28;20092;-64
2021/11/24 10:28:53;;;;;;;13.90;11.75;;;;;;;9.77;44.32;95730.28;4989044;28;20444;-65
2021/11/24 10:31:39;;;;;;;13.63;12.20;;;;;;;9.53;44.99;95724.22;4989525;28;20034;-68
2021/11/24 10:34:15;;;;;;;15.65;12.48;;;;;;;9.58;44.69;95709.00;4990288;28;20044;-65
2021/11/24 10:36:49;;;;;;;14.55;12.65;;;;;;;9.72;44.44;95710.94;4990197;28;20029;-66
2021/11/24 10:39:14;;;;;;;14.20;12.43;;;;;;;9.22;44.78;95705.16;4992877;28;20121;-65
2021/11/24 10:41:40;;;;;;;13.98;12.30;;;;;;;8.94;45.97;95696.13;4992998;28;20105;-66
2021/11/24 10:44:07;;;;;;;14.05;12.18;;;;;;;8.78;46.16;95692.81;4989863;28;20057;-63
2021/11/24 10:46:34;;;;;;;14.10;12.45;;;;;;;8.47;46.75;95702.88;4989797;28;20421;-62
2021/11/24 10:49:05;;;;;;;13.20;11.70;;;;;;;8.72;47.17;95705.31;4989683;28;20023;-64
2021/11/24 10:51:37;;;;;;;13.52;11.70;;;;;;;8.62;46.69;95694.78;4988029;28;20061;-63
2021/11/24 10:54:12;;;;;;;13.25;11.77;;;;;;;8.46;46.86;95674.78;4989474;28;20033;-63
2021/11/24 10:57:02;;;;;;;14.65;11.52;;;;;;;8.83;46.31;95685.59;4993478;28;20531;-64
2021/11/24 10:59:31;;;;;;;11.73;10.52;;;;;;;9.06;46.22;95665.50;4989327;28;20492;-64
2021/11/24 11:02:30;;;;;;;12.15;10.95;;;;;;;8.79;46.09;95681.91;4989513;28;20105;-65
2021/11/24 11:04:59;;;;;;;15.25;11.52;;;;;;;8.80;46.51;95680.88;4990074;28;20030;-63
2021/11/24 11:07:26;;;;;;;12.27;10.98;;;;;;;8.75;46.35;95683.56;4988572;28;20026;-63
2021/11/24 11:10:06;;;;;;;12.52;11.23;;;;;;;8.67;46.44;95673.53;4990547;28;20100;-63
2021/11/24 11:12:33;;;;;;;13.35;11.27;;;;;;;8.92;46.07;95677.03;4986236;28;20026;-63
2021/11/24 11:15:30;;;;;;;15.15;11.15;;;;;;;8.09;46.81;95660.16;4989750;28;20034;-62
2021/11/24 11:18:11;;;;;;;13.07;10.63;;;;;;;7.98;47.73;95671.88;4989508;28;20106;-64
2021/11/24 11:20:51;;;;;;;12.82;11.48;;;;;;;7.79;48.66;95671.72;4990395;28;20026;-63